Time;durP1;ratioP1;P1;durP2;ratioP2;P2;SDS_P1;SDS_P2;PMS_P1;PMS_P2;Temp;Humidity;BMP_temperature;BMP_pressure;BME280_temperature;BME280_humidity;BME280_pressure;Samples;Min_cycle;Max_cycle;Signal;HPM_P1;HPM_P2
2022/01/01 00:02:18;;;;;;;;;29.25;23.50;;;;;11.47;85.06;101739.47;5035566;28;45469;-78
2022/01/01 00:04:43;;;;;;;;;33.00;28.75;;;;;11.44;85.10;101737.72;5040660;28;45390;-79
2022/01/01 00:07:12;;;;;;;;;40.75;34.75;;;;;11.40;85.36;101738.59;5031773;28;45382;-78
2022/01/01 00:09:38;;;;;;;;;38.25;31.00;;;;;11.33;85.19;101737.78;5034779;28;45495;-76
2022/01/01 00:12:05;;;;;;;;;38.25;33.00;;;;;11.31;85.37;101744.84;5037299;28;45470;-77
2022/01/01 00:14:30;;;;;;;;;32.25;28.75;;;;;11.29;85.67;101740.44;5038085;28;45456;-78
2022/01/01 00:16:56;;;;;;;;;43.00;35.50;;;;;11.26;85.29;101748.41;5035792;28;45362;-78
2022/01/01 00:19:21;;;;;;;;;36.25;28.75;;;;;11.27;85.45;101744.88;5035247;28;45952;-77
2022/01/01 00:21:47;;;;;;;;;39.25;27.00;;;;;11.22;85.50;101741.34;5035168;28;45319;-77
2022/01/01 00:24:12;;;;;;;;;22.75;20.50;;;;;11.19;85.42;101745.78;5035643;28;45435;-78
2022/01/01 00:26:37;;;;;;;;;36.00;28.25;;;;;11.16;85.54;101737.84;5035789;28;45414;-78
2022/01/01 00:29:04;;;;;;;;;40.25;28.25;;;;;11.18;85.21;101744.00;5034443;28;45977;-78
2022/01/01 00:31:29;;;;;;;;;31.25;28.00;;;;;11.14;85.43;101734.31;5031103;28;45456;-77
2022/01/01 00:33:55;;;;;;;;;34.25;32.75;;;;;11.17;85.35;101738.72;5015918;28;45353;-78
2022/01/01 00:36:21;;;;;;;;;32.50;29.50;;;;;11.14;85.73;101734.31;5015419;28;45454;-77
2022/01/01 00:38:46;;;;;;;;;38.00;33.25;;;;;11.15;85.45;101737.84;5019500;28;45635;-77
2022/01/01 00:41:12;;;;;;;;;41.00;34.75;;;;;11.14;85.90;101739.59;5036003;28;45491;-78
2022/01/01 00:43:37;;;;;;;;;46.25;39.50;;;;;11.16;85.64;101737.84;5036940;28;45421;-78
2022/01/01 00:46:03;;;;;;;;;42.50;36.25;;;;;11.18;85.54;101735.19;5035288;28;45569;-77
2022/01/01 00:48:28;;;;;;;;;42.75;39.75;;;;;11.17;85.58;101730.78;5034010;28;46339;-78
2022/01/01 00:50:54;;;;;;;;;42.50;33.50;;;;;11.21;85.42;101748.41;5034409;28;45487;-77
2022/01/01 00:53:19;;;;;;;;;39.50;35.25;;;;;11.20;84.79;101744.00;5034403;28;45370;-78
2022/01/01 00:55:44;;;;;;;;;45.75;40.25;;;;;11.22;85.15;101751.94;5034223;28;45401;-77
2022/01/01 00:58:10;;;;;;;;;42.50;39.00;;;;;11.24;85.13;101740.47;5029435;28;45997;-77
2022/01/01 01:00:35;;;;;;;;;42.25;37.50;;;;;11.27;84.54;101742.22;5033416;28;45396;-78
2022/01/01 01:03:07;;;;;;;;;36.25;31.75;;;;;11.24;84.88;101743.09;5034989;28;45509;-78
2022/01/01 01:05:33;;;;;;;;;47.75;38.25;;;;;11.29;84.68;101745.75;5035246;28;45311;-78
2022/01/01 01:07:58;;;;;;;;;42.25;38.25;;;;;11.27;84.79;101731.63;5032031;28;45757;-77
2022/01/01 01:10:23;;;;;;;;;35.25;33.25;;;;;11.25;84.54;101733.41;5018112;28;45502;-78
2022/01/01 01:12:49;;;;;;;;;42.25;40.50;;;;;11.26;84.44;101728.09;5024146;28;45318;-78
2022/01/01 01:15:18;;;;;;;;;34.75;31.25;;;;;11.23;84.63;101729.88;5039668;28;45260;-78
2022/01/01 01:17:49;;;;;;;;;38.50;34.50;;;;;11.26;84.70;101740.47;5023010;28;45536;-77
2022/01/01 01:20:15;;;;;;;;;32.00;27.00;;;;;11.29;84.98;101736.03;5014711;28;45343;-78
2022/01/01 01:22:41;;;;;;;;;40.00;33.25;;;;;11.32;84.80;101725.41;5032825;28;45488;-78
2022/01/01 01:25:08;;;;;;;;;37.25;34.00;;;;;11.33;84.81;101732.47;5034832;28;45359;-78
2022/01/01 01:27:35;;;;;;;;;8.50;5.25;;;;;11.34;84.52;101733.34;5032431;28;46228;-79
2022/01/01 01:30:00;;;;;;;;;42.75;34.00;;;;;11.31;85.19;101728.06;5034122;28;45442;-79
2022/01/01 01:32:26;;;;;;;;;40.00;30.75;;;;;11.33;84.94;101726.31;5033699;28;45477;-79
2022/01/01 01:34:51;;;;;;;;;35.00;28.50;;;;;11.33;84.69;101732.47;5034598;28;45434;-78
2022/01/01 01:37:17;;;;;;;;;40.50;36.25;;;;;11.31;84.72;101721.03;5033584;28;46260;-78
2022/01/01 01:39:42;;;;;;;;;31.75;31.00;;;;;11.32;84.88;101725.41;5034132;28;45366;-78
2022/01/01 01:42:08;;;;;;;;;39.00;34.75;;;;;11.31;84.74;101723.69;5026673;28;45311;-77
2022/01/01 01:44:41;;;;;;;;;41.50;34.00;;;;;11.31;85.09;101736.91;5016320;28;45275;-78
2022/01/01 01:47:14;;;;;;;;;48.25;41.75;;;;;11.29;85.11;101741.31;5025628;28;45588;-78
2022/01/01 01:49:40;;;;;;;;;43.75;34.75;;;;;11.26;85.03;101728.09;5034669;28;45469;-77
2022/01/01 01:52:07;;;;;;;;;45.00;38.50;;;;;11.21;85.36;101724.59;5030184;28;45397;-77
2022/01/01 01:54:33;;;;;;;;;45.75;38.00;;;;;11.24;85.21;101736.94;5034825;28;45379;-78
2022/01/01 01:56:59;;;;;;;;;47.25;37.50;;;;;11.23;85.41;101737.81;5033646;28;45778;-77
2022/01/01 01:59:25;;;;;;;;;38.75;31.25;;;;;11.16;85.44;101729.91;5034743;28;45346;-78
2022/01/01 02:01:51;;;;;;;;;28.25;27.00;;;;;11.15;85.54;101732.56;5032701;28;45561;-78
2022/01/01 02:04:17;;;;;;;;;25.25;23.50;;;;;11.10;85.48;101729.94;5033601;28;45362;-78
2022/01/01 02:06:42;;;;;;;;;30.50;27.75;;;;;11.07;85.41;101727.31;5034275;28;45358;-77
2022/01/01 02:09:12;;;;;;;;;23.50;21.00;;;;;11.01;85.75;101727.34;5020374;28;45497;-79
2022/01/01 02:11:41;;;;;;;;;25.00;24.00;;;;;10.97;85.82;101726.44;5022701;28;45462;-77
2022/01/01 02:14:17;;;;;;;;;28.25;24.50;;;;;10.96;85.76;101727.34;5035283;28;45328;-77
2022/01/01 02:17:08;;;;;;;;;22.00;19.50;;;;;10.90;85.72;101724.72;5034764;28;45633;-77
2022/01/01 02:19:59;;;;;;;;;28.50;24.50;;;;;10.91;86.06;101725.59;5034479;28;45432;-77
2022/01/01 02:22:41;;;;;;;;;30.25;27.00;;;;;10.83;86.31;101715.91;5013146;28;45496;-78
2022/01/01 02:25:07;;;;;;;;;21.75;17.00;;;;;10.82;86.05;101719.44;5013432;28;45642;-78
2022/01/01 02:27:36;;;;;;;;;24.00;20.00;;;;;10.82;86.22;101715.91;5026612;28;45710;-77
2022/01/01 02:30:04;;;;;;;;;30.00;21.25;;;;;10.71;86.22;101705.38;5034219;28;45444;-76
2022/01/01 02:32:29;;;;;;;;;30.25;23.25;;;;;10.69;85.96;101707.16;5032915;28;45390;-78
2022/01/01 02:34:54;;;;;;;;;21.50;18.00;;;;;10.70;86.36;101715.94;5033885;28;45421;-77
2022/01/01 02:37:20;;;;;;;;;20.00;17.00;;;;;10.65;86.23;101713.31;5034183;28;45370;-78
2022/01/01 02:39:45;;;;;;;;;22.00;17.50;;;;;10.63;86.39;101701.88;5036902;28;45247;-76
2022/01/01 02:42:11;;;;;;;;;29.00;21.25;;;;;10.60;86.73;101709.81;5044912;28;45391;-77
2022/01/01 02:44:37;;;;;;;;;30.50;24.50;;;;;10.59;86.72;101705.41;5054819;28;45512;-78
2022/01/01 02:47:02;;;;;;;;;20.25;18.25;;;;;10.55;86.70;101695.72;5045013;28;45422;-79
2022/01/01 02:49:28;;;;;;;;;22.00;19.00;;;;;10.54;86.72;101704.53;5040270;28;45491;-77
2022/01/01 02:51:53;;;;;;;;;23.00;20.00;;;;;10.51;86.76;101701.88;5032595;28;45553;-78
2022/01/01 02:54:18;;;;;;;;;34.25;21.00;;;;;10.48;87.04;101703.66;5020451;28;45445;-78
2022/01/01 02:56:44;;;;;;;;;22.50;17.50;;;;;10.45;87.16;101702.78;5021835;28;46370;-77
2022/01/01 02:59:09;;;;;;;;;22.25;18.50;;;;;10.43;87.46;101709.81;5036559;28;45432;-78
2022/01/01 03:01:35;;;;;;;;;22.00;19.50;;;;;10.36;87.84;101708.97;5035787;28;45419;-77
2022/01/01 03:04:00;;;;;;;;;17.50;16.00;;;;;10.37;87.68;101707.19;5036538;28;45491;-78
2022/01/01 03:06:28;;;;;;;;;21.50;18.25;;;;;10.35;88.20;101712.47;5032973;28;46215;-78
2022/01/01 03:08:55;;;;;;;;;21.25;17.50;;;;;10.30;87.90;101708.94;5017685;28;45485;-77
2022/01/01 03:11:21;;;;;;;;;13.00;13.00;;;;;10.24;87.92;101706.31;5032731;28;45409;-78
2022/01/01 03:13:47;;;;;;;;;23.00;21.75;;;;;10.23;88.18;101712.47;5036175;28;45723;-78
2022/01/01 03:16:14;;;;;;;;;31.00;22.00;;;;;10.20;88.36;101718.63;5035979;28;46048;-77
2022/01/01 03:18:39;;;;;;;;;30.75;22.50;;;;;10.18;88.51;101708.94;5037905;28;45453;-78
2022/01/01 03:21:05;;;;;;;;;20.00;17.25;;;;;10.16;88.74;101715.97;5023252;28;45350;-78
2022/01/01 03:23:31;;;;;;;;;19.25;15.75;;;;;10.12;88.67;101710.69;5037703;28;45379;-78
2022/01/01 03:25:57;;;;;;;;;9.75;9.75;;;;;10.12;88.82;101721.25;5036865;28;45453;-77
2022/01/01 03:28:22;;;;;;;;;23.00;19.00;;;;;10.08;88.92;101716.88;5037776;28;45396;-78
2022/01/01 03:30:48;;;;;;;;;20.25;18.00;;;;;10.07;88.85;101716.88;5035428;28;45414;-77
2022/01/01 03:33:13;;;;;;;;;21.00;20.50;;;;;10.03;89.17;101718.63;5035435;28;45361;-77
2022/01/01 03:35:38;;;;;;;;;20.00;15.75;;;;;10.02;89.32;101726.53;5035741;28;45989;-77
2022/01/01 03:38:04;;;;;;;;;18.25;15.75;;;;;10.00;89.19;101721.25;5034068;28;45567;-78
2022/01/01 03:40:29;;;;;;;;;20.00;19.25;;;;;9.97;89.43;101721.25;5015044;28;45497;-77
2022/01/01 03:42:54;;;;;;;;;23.75;21.00;;;;;9.96;89.39;101709.81;5021884;28;45521;-77
2022/01/01 03:45:20;;;;;;;;;18.00;16.25;;;;;9.95;89.51;101702.78;5016018;28;46355;-78
2022/01/01 03:47:45;;;;;;;;;27.25;21.00;;;;;9.96;88.87;101703.69;5031237;28;45418;-77
2022/01/01 03:50:11;;;;;;;;;25.25;19.00;;;;;9.98;89.27;101701.91;5037312;28;45313;-77
2022/01/01 03:52:44;;;;;;;;;24.25;21.25;;;;;9.97;89.00;101705.41;5028685;28;45409;-77
2022/01/01 03:55:13;;;;;;;;;21.00;20.00;;;;;9.96;89.24;101704.53;5018326;28;46298;-77
2022/01/01 03:57:39;;;;;;;;;25.75;19.00;;;;;9.96;89.10;101708.97;5029226;28;45454;-77
2022/01/01 04:00:07;;;;;;;;;24.75;24.75;;;;;9.96;89.26;101714.25;5034546;28;45373;-76
2022/01/01 04:02:33;;;;;;;;;29.50;24.75;;;;;9.96;89.03;101719.53;5035917;28;45324;-76
2022/01/01 04:04:59;;;;;;;;;28.75;23.50;;;;;9.95;89.24;101713.34;5035422;28;45361;-77
2022/01/01 04:07:24;;;;;;;;;20.75;17.50;;;;;9.95;88.99;101712.47;5024274;28;45430;-77
2022/01/01 04:09:49;;;;;;;;;26.75;22.00;;;;;9.93;88.87;101706.31;5015918;28;45718;-77
2022/01/01 04:12:15;;;;;;;;;2.25;0.50;;;;;9.88;89.01;101695.72;5020642;28;45362;-77
2022/01/01 04:14:40;;;;;;;;;22.75;22.75;;;;;9.89;88.89;101707.19;5035274;28;45410;-78
2022/01/01 04:17:06;;;;;;;;;23.50;20.75;;;;;9.85;89.21;101708.03;5033694;28;45497;-78
2022/01/01 04:19:39;;;;;;;;;14.50;10.00;;;;;9.82;89.10;101710.69;5036541;28;45326;-79
2022/01/01 04:22:06;;;;;;;;;21.25;19.50;;;;;9.81;89.33;101711.56;5036087;28;45382;-77
2022/01/01 04:24:31;;;;;;;;;29.00;24.00;;;;;9.78;89.48;101705.41;5038439;28;45461;-78
2022/01/01 04:26:57;;;;;;;;;23.25;22.50;;;;;9.75;89.52;101700.13;5036593;28;45401;-78
2022/01/01 04:29:23;;;;;;;;;22.50;20.50;;;;;9.72;89.17;101702.75;5035625;28;45414;-77
2022/01/01 04:31:49;;;;;;;;;25.50;22.00;;;;;9.70;89.28;101696.59;5035980;28;45400;-77
2022/01/01 04:34:14;;;;;;;;;23.50;19.50;;;;;9.69;89.76;101702.75;5034926;28;46242;-77
2022/01/01 04:36:48;;;;;;;;;24.00;19.50;;;;;9.65;89.36;101700.97;5036676;28;45451;-77
2022/01/01 04:39:13;;;;;;;;;31.25;23.75;;;;;9.62;89.36;101694.81;5016341;28;45818;-78
2022/01/01 04:41:39;;;;;;;;;27.50;25.25;;;;;9.57;89.49;101692.19;5015905;28;45505;-77
2022/01/01 04:44:04;;;;;;;;;26.25;22.75;;;;;9.54;89.67;101686.91;5033674;28;46100;-77
2022/01/01 04:46:30;;;;;;;;;24.25;20.25;;;;;9.56;89.75;101693.03;5027129;28;45502;-77
2022/01/01 04:48:55;;;;;;;;;33.50;30.50;;;;;9.53;89.33;101698.31;5035089;28;45482;-77
2022/01/01 04:51:20;;;;;;;;;27.00;23.75;;;;;9.51;89.29;101700.09;5035865;28;45524;-77
2022/01/01 04:53:46;;;;;;;;;24.25;20.50;;;;;9.48;89.58;101694.81;5025369;28;45922;-77
2022/01/01 04:56:18;;;;;;;;;27.75;24.25;;;;;9.41;89.74;101686.88;5016922;28;45584;-76
2022/01/01 04:58:43;;;;;;;;;33.50;27.50;;;;;9.43;90.03;101686.88;5032780;28;45457;-78
2022/01/01 05:01:09;;;;;;;;;32.25;22.50;;;;;9.48;90.29;101694.81;5035287;28;45422;-77
2022/01/01 05:03:34;;;;;;;;;23.75;20.00;;;;;9.49;89.62;101696.53;5032500;28;45986;-77
2022/01/01 05:06:00;;;;;;;;;20.00;18.00;;;;;9.45;89.53;101694.78;5036019;28;45628;-77
2022/01/01 05:08:26;;;;;;;;;20.75;16.75;;;;;9.45;89.46;101700.06;5035373;28;45658;-77
2022/01/01 05:10:51;;;;;;;;;21.25;19.50;;;;;9.41;89.61;101704.44;5035055;28;45366;-78
2022/01/01 05:13:19;;;;;;;;;16.00;12.75;;;;;9.35;89.60;101697.41;5023770;28;45973;-79
2022/01/01 05:15:44;;;;;;;;;26.25;23.75;;;;;9.30;89.86;101704.41;5015340;28;45338;-78
2022/01/01 05:18:10;;;;;;;;;25.75;19.75;;;;;9.23;89.90;101702.63;5031036;28;45491;-77
2022/01/01 05:20:35;;;;;;;;;19.00;16.25;;;;;9.23;89.98;101699.97;5036829;28;45307;-77
2022/01/01 05:23:00;;;;;;;;;27.25;21.50;;;;;9.25;90.10;101714.09;5034709;28;46201;-77
2022/01/01 05:25:26;;;;;;;;;22.50;14.50;;;;;9.22;89.72;101703.53;5030887;28;44788;-77
2022/01/01 05:27:51;;;;;;;;;26.75;22.00;;;;;9.21;90.37;101696.47;5036565;28;45434;-78
2022/01/01 05:30:17;;;;;;;;;21.75;18.75;;;;;9.19;90.00;101687.69;5037239;28;45423;-78
2022/01/01 05:32:42;;;;;;;;;27.00;21.00;;;;;9.21;89.65;101699.97;5034209;28;46456;-77
2022/01/01 05:35:08;;;;;;;;;26.25;20.75;;;;;9.18;89.84;101688.53;5034434;28;45355;-77
2022/01/01 05:37:33;;;;;;;;;32.50;30.75;;;;;9.19;90.13;101695.59;5034274;28;45560;-78
2022/01/01 05:39:58;;;;;;;;;24.25;19.00;;;;;9.19;90.54;101683.28;5035168;28;45481;-77
2022/01/01 05:42:24;;;;;;;;;26.50;21.00;;;;;9.19;89.76;101682.41;5027933;28;46611;-77
2022/01/01 05:44:49;;;;;;;;;22.75;22.75;;;;;9.18;89.92;101688.53;5022491;28;45700;-77
2022/01/01 05:47:15;;;;;;;;;21.50;16.75;;;;;9.16;89.71;101675.34;5033882;28;45479;-79
2022/01/01 05:49:40;;;;;;;;;25.25;24.75;;;;;9.14;89.94;101678.84;5035824;28;45580;-77
2022/01/01 05:52:06;;;;;;;;;18.25;16.25;;;;;9.16;89.87;101677.13;5034028;28;45561;-76
2022/01/01 05:54:31;;;;;;;;;26.50;22.50;;;;;9.18;89.68;101691.19;5034117;28;45572;-78
2022/01/01 05:56:56;;;;;;;;;30.00;26.00;;;;;9.14;89.64;101682.41;5037791;28;45831;-77
2022/01/01 05:59:22;;;;;;;;;26.00;21.00;;;;;9.16;89.29;101685.03;5035338;28;45524;-76
2022/01/01 06:01:47;;;;;;;;;21.75;21.00;;;;;9.14;89.31;101692.94;5035094;28;45585;-77
2022/01/01 06:04:12;;;;;;;;;24.75;24.00;;;;;9.14;89.61;101684.13;5034182;28;45627;-77
2022/01/01 06:06:37;;;;;;;;;24.00;19.50;;;;;9.15;89.45;101675.34;5034415;28;45452;-78
2022/01/01 06:09:03;;;;;;;;;25.75;18.75;;;;;9.15;89.35;101676.22;5034251;28;45582;-77
2022/01/01 06:11:28;;;;;;;;;23.75;23.25;;;;;9.17;89.42;101681.50;5033593;28;46173;-77
2022/01/01 06:13:54;;;;;;;;;23.50;19.00;;;;;9.13;89.31;101670.06;5029618;28;45420;-77
2022/01/01 06:16:19;;;;;;;;;18.00;17.50;;;;;9.16;89.30;101671.84;5038101;28;45402;-78
2022/01/01 06:18:44;;;;;;;;;21.25;19.50;;;;;9.16;89.17;101666.56;5036887;28;45915;-77
2022/01/01 06:21:10;;;;;;;;;25.00;22.00;;;;;9.12;88.68;101677.97;5038281;28;45433;-77
2022/01/01 06:23:37;;;;;;;;;22.00;21.00;;;;;9.09;88.89;101678.84;5037740;28;45392;-78
2022/01/01 06:26:06;;;;;;;;;24.00;20.50;;;;;9.09;89.33;101685.88;5037008;28;45432;-77
2022/01/01 06:28:32;;;;;;;;;24.00;19.50;;;;;9.09;89.09;101681.47;5040048;28;45397;-77
2022/01/01 06:30:58;;;;;;;;;17.50;16.50;;;;;9.10;88.87;101687.66;5035869;28;47329;-78
2022/01/01 06:33:23;;;;;;;;;28.00;21.25;;;;;9.06;88.93;101681.47;5034534;28;45514;-78
2022/01/01 06:35:48;;;;;;;;;22.50;18.50;;;;;9.03;89.30;101674.44;5037332;28;45319;-78
2022/01/01 06:38:15;;;;;;;;;20.00;18.50;;;;;9.04;88.44;101678.81;5037121;28;45524;-77
2022/01/01 06:40:41;;;;;;;;;23.75;20.00;;;;;8.99;88.87;101680.56;5036574;28;46196;-77
2022/01/01 06:43:08;;;;;;;;;29.50;17.50;;;;;8.97;88.52;101677.03;5035328;28;45516;-77
2022/01/01 06:45:34;;;;;;;;;22.00;18.75;;;;;8.97;88.55;101678.78;5036774;28;45441;-77
2022/01/01 06:48:01;;;;;;;;;20.75;16.50;;;;;8.95;89.07;101672.66;5025898;28;45708;-77
2022/01/01 06:50:27;;;;;;;;;26.00;19.00;;;;;8.98;88.83;101680.56;5017208;28;46248;-77
2022/01/01 06:52:52;;;;;;;;;30.50;22.00;;;;;8.94;89.38;101669.09;5020611;28;45486;-77
2022/01/01 06:55:18;;;;;;;;;25.00;21.75;;;;;8.99;89.21;101677.94;5030101;28;45399;-77
2022/01/01 06:57:44;;;;;;;;;24.00;19.50;;;;;9.00;88.88;101671.78;5020348;28;45323;-77
2022/01/01 07:00:11;;;;;;;;;22.50;20.00;;;;;9.04;88.87;101675.31;5021299;28;45379;-76
2022/01/01 07:02:45;;;;;;;;;13.00;13.00;;;;;8.99;88.71;101670.03;5025209;28;45379;-77
2022/01/01 07:05:12;;;;;;;;;12.25;12.25;;;;;9.04;88.65;101673.53;5036952;28;45398;-77
2022/01/01 07:07:38;;;;;;;;;13.75;12.25;;;;;9.02;88.14;101663.88;5036835;28;45430;-78
2022/01/01 07:10:05;;;;;;;;;16.50;14.50;;;;;9.02;88.36;101664.75;5036065;28;45539;-77
2022/01/01 07:12:31;;;;;;;;;19.50;17.50;;;;;9.00;87.99;101676.16;5030734;28;45466;-77
2022/01/01 07:14:56;;;;;;;;;17.75;15.00;;;;;8.97;88.20;101670.88;5036929;28;45457;-77
2022/01/01 07:17:21;;;;;;;;;11.00;9.75;;;;;8.95;88.09;101678.78;5036379;28;45541;-77
2022/01/01 07:19:47;;;;;;;;;17.00;16.75;;;;;8.95;88.36;101673.50;5037090;28;45402;-77
2022/01/01 07:22:12;;;;;;;;;14.75;13.00;;;;;8.96;87.77;101680.56;5034267;28;45736;-77
2022/01/01 07:24:37;;;;;;;;;18.75;16.00;;;;;8.93;87.73;101670.00;5025075;28;45357;-79
2022/01/01 07:27:03;;;;;;;;;18.50;15.50;;;;;8.91;87.94;101671.72;5015518;28;45395;-78
2022/01/01 07:29:28;;;;;;;;;16.50;13.50;;;;;8.93;88.39;101667.38;5018777;28;45573;-77
2022/01/01 07:31:54;;;;;;;;;14.50;13.75;;;;;8.91;88.14;101669.09;5026809;28;45522;-77
2022/01/01 07:34:21;;;;;;;;;15.00;14.50;;;;;8.91;88.12;101681.41;5037940;28;45516;-77
2022/01/01 07:36:47;;;;;;;;;12.75;11.00;;;;;8.89;87.65;101673.50;5037401;28;45402;-78
2022/01/01 07:39:13;;;;;;;;;19.00;13.50;;;;;8.86;87.52;101678.75;5038854;28;46055;-77
2022/01/01 07:41:39;;;;;;;;;16.00;12.50;;;;;8.83;87.48;101684.00;5028131;28;45491;-76
2022/01/01 07:44:05;;;;;;;;;19.25;16.50;;;;;8.83;87.61;101684.00;5036931;28;45413;-77
2022/01/01 07:46:30;;;;;;;;;15.75;14.00;;;;;8.83;87.77;101681.38;5036086;28;45662;-77
2022/01/01 07:48:56;;;;;;;;;16.50;13.50;;;;;8.77;87.46;101670.81;5034442;28;45527;-78
2022/01/01 07:51:21;;;;;;;;;15.50;12.00;;;;;8.80;87.56;101673.44;5021302;28;45557;-77
2022/01/01 07:53:46;;;;;;;;;10.75;9.00;;;;;8.78;87.67;101669.94;5031516;28;45464;-76
2022/01/01 07:56:11;;;;;;;;;12.00;12.00;;;;;8.77;86.88;101674.31;5025282;28;45521;-79
2022/01/01 07:58:37;;;;;;;;;14.75;12.00;;;;;8.76;87.16;101676.94;5033735;28;46255;-77
2022/01/01 08:01:02;;;;;;;;;18.00;10.50;;;;;8.77;87.10;101679.59;5023476;28;45605;-77
2022/01/01 08:03:28;;;;;;;;;14.50;12.00;;;;;8.78;86.52;101689.25;5038969;28;45365;-78
2022/01/01 08:05:54;;;;;;;;;17.25;13.25;;;;;8.76;86.92;101685.75;5050390;28;45643;-78
2022/01/01 08:08:20;;;;;;;;;20.50;15.00;;;;;8.77;86.98;101683.97;5053870;28;45331;-77
2022/01/01 08:10:46;;;;;;;;;9.50;9.00;;;;;8.85;86.79;101685.78;5033599;28;45392;-79
2022/01/01 08:13:11;;;;;;;;;12.75;12.75;;;;;8.86;85.85;101695.44;5034279;28;51229;-78
2022/01/01 08:15:36;;;;;;;;;12.25;11.50;;;;;8.85;86.19;101676.97;5034742;28;45381;-78
2022/01/01 08:18:02;;;;;;;;;15.00;10.00;;;;;8.95;85.78;101694.59;5031671;28;45371;-78
2022/01/01 08:20:28;;;;;;;;;11.50;10.00;;;;;9.02;85.79;101685.00;5029647;28;45323;-77
2022/01/01 08:22:53;;;;;;;;;22.50;13.50;;;;;9.06;85.47;101678.81;5034682;28;45556;-77
2022/01/01 08:25:20;;;;;;;;;15.00;9.75;;;;;9.12;85.10;101662.16;5032917;28;45676;-77
2022/01/01 08:27:45;;;;;;;;;15.25;12.50;;;;;9.22;84.86;101659.53;5024591;28;46154;-77
2022/01/01 08:30:11;;;;;;;;;12.25;11.25;;;;;9.28;84.81;101660.44;5036664;28;45509;-78
2022/01/01 08:32:36;;;;;;;;;12.50;10.25;;;;;9.34;84.27;101656.06;5028345;28;45549;-78
2022/01/01 08:35:02;;;;;;;;;14.50;14.00;;;;;9.40;83.82;101666.63;5023518;28;45485;-77
2022/01/01 08:37:27;;;;;;;;;14.75;12.25;;;;;9.47;83.71;101662.22;5025619;28;46041;-76
2022/01/01 08:39:54;;;;;;;;;13.00;12.00;;;;;9.51;83.43;101665.78;5029181;28;45453;-77
2022/01/01 08:42:20;;;;;;;;;14.50;10.00;;;;;9.54;83.26;101664.00;5027607;28;45553;-77
2022/01/01 08:44:45;;;;;;;;;14.25;11.50;;;;;9.60;83.41;101660.50;5027003;28;45535;-78
2022/01/01 08:47:10;;;;;;;;;10.75;9.00;;;;;9.65;82.71;101669.31;5030219;28;47773;-78
2022/01/01 08:49:36;;;;;;;;;14.00;9.75;;;;;9.69;82.74;101667.56;5028297;28;45449;-79
2022/01/01 08:52:01;;;;;;;;;12.75;12.75;;;;;9.65;82.17;101657.88;5025730;28;45357;-78
2022/01/01 08:54:27;;;;;;;;;9.25;9.25;;;;;9.67;82.42;101654.38;5026556;28;45595;-77
2022/01/01 08:56:52;;;;;;;;;12.00;11.75;;;;;9.72;82.18;101652.59;5024708;28;45549;-76
2022/01/01 08:59:18;;;;;;;;;15.25;10.50;;;;;9.80;81.69;101649.97;5029786;28;45657;-76
2022/01/01 09:01:44;;;;;;;;;15.50;11.00;;;;;9.81;81.35;101648.19;5025764;28;45524;-78
2022/01/01 09:04:09;;;;;;;;;9.50;9.50;;;;;9.84;81.34;101648.19;5031427;28;45665;-80
2022/01/01 09:06:34;;;;;;;;;15.50;13.00;;;;;9.94;80.97;101658.78;5033211;28;45520;-79
2022/01/01 09:09:00;;;;;;;;;15.50;13.00;;;;;10.21;80.44;101662.25;5023631;28;45658;-78
2022/01/01 09:11:25;;;;;;;;;12.25;12.25;;;;;10.58;79.54;101661.34;5029623;28;45435;-78
2022/01/01 09:13:51;;;;;;;;;12.00;11.00;;;;;10.84;77.98;101667.44;5029946;28;45531;-78
2022/01/01 09:16:18;;;;;;;;;9.50;9.50;;;;;11.02;77.52;101655.91;5021732;28;45398;-78
2022/01/01 09:18:46;;;;;;;;;13.75;11.00;;;;;11.32;76.32;101646.00;5024463;28;45464;-79
2022/01/01 09:21:12;;;;;;;;;16.50;13.75;;;;;11.68;75.19;101638.72;5032260;28;45811;-78
2022/01/01 09:23:38;;;;;;;;;12.75;10.75;;;;;12.04;73.27;101638.44;5030759;28;45504;-76
2022/01/01 09:26:04;;;;;;;;;14.25;12.25;;;;;12.29;72.36;101624.97;5019766;28;45462;-76
2022/01/01 09:28:32;;;;;;;;;13.00;13.00;;;;;12.50;71.68;101634.47;5025209;28;45468;-78
2022/01/01 09:30:58;;;;;;;;;11.75;11.75;;;;;12.67;70.51;101627.16;5027278;28;45472;-78
2022/01/01 09:33:29;;;;;;;;;12.50;10.50;;;;;12.84;69.89;101619.00;5035608;28;45544;-78
2022/01/01 09:35:55;;;;;;;;;17.25;15.00;;;;;12.99;69.06;101609.97;5032604;28;45516;-78
2022/01/01 09:38:20;;;;;;;;;19.25;15.75;;;;;13.15;68.68;101606.19;5020295;28;45402;-79
2022/01/01 09:40:46;;;;;;;;;14.75;10.75;;;;;13.23;68.35;101606.09;5029370;28;45384;-78
2022/01/01 09:43:12;;;;;;;;;16.00;13.50;;;;;13.15;68.50;101600.91;5017645;28;45465;-78
2022/01/01 09:45:41;;;;;;;;;15.50;13.50;;;;;13.17;68.01;101611.50;5031936;28;46424;-77
2022/01/01 09:48:07;;;;;;;;;14.25;14.25;;;;;13.27;68.08;101602.50;5029332;28;45533;-79
2022/01/01 09:50:32;;;;;;;;;7.50;5.75;;;;;13.53;67.67;101613.63;5031432;28;45467;-77
2022/01/01 09:52:58;;;;;;;;;7.00;7.00;;;;;13.77;66.75;101602.63;5028181;28;45352;-78
2022/01/01 09:55:23;;;;;;;;;8.50;8.00;;;;;14.08;65.77;101596.75;5018529;28;45437;-78
2022/01/01 09:57:48;;;;;;;;;10.00;10.00;;;;;14.37;64.54;101598.84;5025668;28;45483;-77
2022/01/01 10:00:14;;;;;;;;;11.25;7.00;;;;;14.52;63.66;101604.78;5026118;28;45495;-78
2022/01/01 10:02:40;;;;;;;;;13.75;11.00;;;;;14.68;63.34;101597.38;5034202;28;45479;-78
2022/01/01 10:05:06;;;;;;;;;12.25;8.50;;;;;14.80;62.30;101588.28;5033603;28;45562;-78
2022/01/01 10:07:32;;;;;;;;;4.75;4.75;;;;;15.00;61.91;101587.81;5024366;28;45532;-77
2022/01/01 10:10:15;;;;;;;;;13.50;12.75;;;;;14.99;61.46;101591.44;5026364;28;45769;-77
2022/01/01 10:12:43;;;;;;;;;7.50;7.50;;;;;15.00;61.31;101587.81;5023258;28;45473;-79
2022/01/01 10:15:08;;;;;;;;;7.00;7.00;;;;;15.03;61.03;101604.63;5017457;28;45518;-78
2022/01/01 10:17:34;;;;;;;;;6.00;6.00;;;;;14.89;60.92;101591.63;5022208;28;45446;-78
2022/01/01 10:19:59;;;;;;;;;7.00;7.00;;;;;14.86;61.22;101593.47;5020786;28;45940;-76
2022/01/01 10:22:25;;;;;;;;;8.75;7.50;;;;;15.10;60.96;101590.25;5026279;28;45390;-79
2022/01/01 10:28:03;;;;;;;;;11.50;8.00;;;;;15.56;59.98;101588.31;5022678;28;45547;-75
2022/01/01 10:30:29;;;;;;;;;9.00;9.00;;;;;15.95;58.88;101590.00;5032684;28;45516;-77
2022/01/01 10:33:17;;;;;;;;;14.00;8.00;;;;;16.53;57.34;101590.19;5031789;28;45485;-75
2022/01/01 10:35:52;;;;;;;;;6.00;6.00;;;;;16.71;56.37;101596.78;5014450;28;45410;-76
2022/01/01 10:38:28;;;;;;;;;9.25;7.50;;;;;17.24;55.25;101601.44;5022493;28;45369;-78
2022/01/01 10:41:16;;;;;;;;;8.00;6.25;;;;;17.69;53.73;101589.31;5015595;28;45391;-76
2022/01/01 10:43:44;;;;;;;;;13.00;7.00;;;;;17.89;53.00;101581.50;5032371;28;45563;-79
2022/01/01 10:46:16;;;;;;;;;8.75;8.25;;;;;18.11;52.46;101570.94;5038747;28;45430;-76
2022/01/01 10:51:12;;;;;;;;;9.25;8.50;;;;;18.06;52.03;101586.25;5025083;28;45548;-77
2022/01/01 10:53:37;;;;;;;;;9.75;6.00;;;;;17.79;52.39;101582.69;5022359;28;45356;-77
2022/01/01 10:56:15;;;;;;;;;10.75;10.00;;;;;17.90;51.83;101583.25;5020848;28;46191;-77
2022/01/01 10:58:41;;;;;;;;;6.50;6.50;;;;;18.12;51.85;101587.84;5029284;28;45507;-77
2022/01/01 11:01:08;;;;;;;;;9.00;9.00;;;;;18.32;51.45;101591.59;5023048;28;45530;-77
2022/01/01 11:03:42;;;;;;;;;8.00;7.00;;;;;18.39;50.88;101593.13;5024666;28;45562;-77
2022/01/01 11:06:13;;;;;;;;;6.00;6.00;;;;;18.31;51.06;101584.50;5021793;28;46088;-77
2022/01/01 11:08:40;;;;;;;;;7.50;7.50;;;;;18.22;51.34;101586.59;5017298;28;45398;-77
2022/01/01 11:11:06;;;;;;;;;8.00;6.50;;;;;18.25;50.82;101578.44;5021887;28;45702;-77
2022/01/01 11:13:32;;;;;;;;;7.75;5.50;;;;;18.27;50.88;101583.75;5034485;28;45423;-77
2022/01/01 11:15:59;;;;;;;;;10.25;8.00;;;;;18.16;51.42;101570.75;5025813;28;45400;-77
2022/01/01 11:18:25;;;;;;;;;14.25;12.75;;;;;18.07;51.66;101574.63;5023155;28;45556;-76